• Join FlightAware (Why Join?)
  • Login
  • US Flag 
08:27AM EDT


 

Airport Tracker/Info


-or-


 

Live Flight TrackerFlight Track Log ✈ DAL3682 ✈ 03-May-2013 ✈ KCVG - KMSP

Flight Track Log - Related Links

Times and Time Zones

All times are in EDT time to prevent confusion due to time zone crossing. See the DAL3682 flight status page for this flight to view local times or setup timezone preferences in your user account.

Time Position Orientation Groundspeed Altitude Reporting Facility
EDT Latitude Longitude Course Direction KTS MPH feet Rate Location/Type
11:49AM 39.0500 -84.6833 293° West 172 198 1,400  Level Cincinnati TRACON
11:49AM 39.0500 -84.7500 270° West 188 216 2,500 1,740 Climbing Cincinnati TRACON
11:50AM 39.0500 -84.8500 270° West 293 337 4,800 2,280 Climbing Cincinnati TRACON
11:52AM 39.0294 -84.9607 311° West  Level FlightAware Approximate
11:52AM 39.0519 -84.9689 271° West 287 330 8,000  Level Indianapolis Center
11:53AM 39.0925 -85.0813 297° West  Level FlightAware Approximate
11:53AM 39.0853 -85.0686 293° West 304 350 10,600  Level Indianapolis Center
11:54AM 39.1384 -85.2152 293° West  Level FlightAware Approximate
11:54AM 39.1244 -85.1697 297° West 315 362 12,200  Level Indianapolis Center
11:55AM 39.1756 -85.3083 295° West 355 409 14,000 1,560 Climbing Indianapolis Center
11:56AM 39.2242 -85.4272 298° West 373 429 15,500 1,440 Climbing Indianapolis Center
11:57AM 39.2914 -85.5314 310° West 377 434 17,000 1,140 Climbing Indianapolis Center
11:58AM 39.3608 -85.6392 310° West 390 449 17,900 900 Climbing Indianapolis Center
11:59AM 39.4308 -85.7525 309° West 402 463 18,900 1,080 Climbing Indianapolis Center
12:00PM 39.5031 -85.8667 309° West 410 472 20,200 1,440 Climbing Indianapolis Center
12:01PM 39.5883 -86.0025 309° West 407 468 21,900 1,260 Climbing Indianapolis Center
12:02PM 39.6589 -86.1164 309° West 406 467 22,900 1,020 Climbing Indianapolis Center
12:03PM 39.7394 -86.2353 311° West 407 468 24,100 1,140 Climbing Indianapolis Center
12:04PM 39.8308 -86.3278 322° Northwest 406 467 25,300 960 Climbing Indianapolis Center
12:05PM 39.9181 -86.4164 322° Northwest 403 464 26,100 600 Climbing Indianapolis Center
12:06PM 40.0081 -86.5069 322° Northwest 407 468 26,600 480 Climbing Indianapolis Center
12:07PM 40.1131 -86.5719 335° Northwest 419 482 27,100 480 Climbing Indianapolis Center
12:08PM 40.1792 -86.6083 337° Northwest 424 488 27,400 480 Climbing Chicago Center
12:09PM 40.2886 -86.6686 337° Northwest 428 493 27,900 480 Climbing Chicago Center
12:10PM 40.4000 -86.7294 337° Northwest 432 497 28,400 480 Climbing Chicago Center
12:11PM 40.5114 -86.7911 337° Northwest 436 502 28,900 480 Climbing Chicago Center
12:12PM 40.6236 -86.8517 338° Northwest 436 502 29,400 480 Climbing Chicago Center
12:13PM 40.7469 -86.9183 338° Northwest 437 503 29,900 240 Climbing Chicago Center
12:14PM 40.8597 -86.9819 337° Northwest 441 507 30,000  Climbing Chicago Center
12:15PM 40.9997 -87.0608 337° Northwest 457 526 30,000  Level Chicago Center
12:16PM 41.1192 -87.1272 337° Northwest 467 537 30,000  Level Chicago Center
12:17PM 41.2383 -87.1939 337° Northwest 467 537 30,000  Level Chicago Center
12:18PM 41.3561 -87.2608 337° Northwest 466 536 30,000  Level Chicago Center
12:19PM 41.4764 -87.3289 337° Northwest 472 543 30,000  Level Chicago Center
12:20PM 41.5958 -87.3967 337° Northwest 472 543 30,000  Level Chicago Center
12:21PM 41.7378 -87.4786 337° Northwest 469 540 30,000  Level Chicago Center
12:22PM 41.8569 -87.5458 337° Northwest 470 541 30,000  Level Chicago Center
12:23PM 41.9764 -87.6139 337° Northwest 471 542 30,000  Level Chicago Center
12:24PM 42.0958 -87.6839 337° Northwest 472 543 30,000  Level Chicago Center
12:25PM 42.2156 -87.7528 337° Northwest 472 543 30,000  Level Chicago Center
12:26PM 42.3508 -87.8319 337° Northwest 473 544 30,000  Level Chicago Center
12:27PM 42.4711 -87.9025 337° Northwest 471 542 30,000  Level Chicago Center
12:28PM 42.5783 -88.0008 326° Northwest 471 542 30,000  Level Chicago Center
12:29PM 42.6736 -88.1242 316° Northwest 470 541 30,000  Level Chicago Center
12:30PM 42.7856 -88.2642 317° Northwest 467 537 30,000  Level Chicago Center
12:31PM 42.8806 -88.3864 317° Northwest 467 537 30,000  Level Chicago Center
12:32PM 42.9764 -88.5086 317° Northwest 468 539 30,000  Level Chicago Center
12:33PM 43.0725 -88.6331 317° Northwest 471 542 30,000  Level Chicago Center
12:34PM 43.1689 -88.7572 317° Northwest 471 542 30,000  Level Chicago Center
12:36PM 43.2653 -88.8833 316° Northwest 473 544 30,000  Level Chicago Center
12:37PM 43.3628 -89.0092 317° Northwest 476 548 30,000  Level Chicago Center
12:38PM 43.4589 -89.1347 317° Northwest 473 544 30,000  Level Chicago Center
12:39PM 43.5714 -89.2822 316° Northwest 476 548 30,000  Level Chicago Center
12:40PM 43.6664 -89.4083 316° Northwest 473 544 30,000  Level Chicago Center
12:40PM 43.7131 -89.4714 316° Northwest 471 542 30,000  Level Minneapolis Center
12:41PM 43.8050 -89.5975 315° West 468 539 30,000  Level Minneapolis Center
12:42PM 43.8997 -89.7231 316° Northwest 469 540 30,000  Level Minneapolis Center
12:43PM 43.9933 -89.8508 316° Northwest 470 541 30,000  Level Minneapolis Center
12:44PM 44.0992 -90.0025 314° West 468 539 30,000  Level Minneapolis Center
12:45PM 44.1633 -90.1572 300° West 463 533 30,000  Level Minneapolis Center
12:46PM 44.2308 -90.3100 302° West 463 533 30,000  Level Minneapolis Center
12:47PM 44.2969 -90.4650 301° West 464 534 30,000  Level Minneapolis Center
12:48PM 44.3644 -90.6178 302° West 463 533 30,000  Level Minneapolis Center
12:49PM 44.4306 -90.7728 301° West 464 534 30,000  Level Minneapolis Center
12:50PM 44.5000 -90.9433 300° West 464 534 30,000 -60 Level Minneapolis Center
12:52PM 44.5658 -91.0994 301° West 466 536 29,900 -1,320 Descending Minneapolis Center
12:53PM 44.6303 -91.2547 300° West 465 535 27,300 -2,520 Descending Minneapolis Center
12:54PM 44.6917 -91.4050 300° West 454 522 24,800 -2,580 Descending Minneapolis Center
12:55PM 44.7639 -91.5794 300° West 437 503 22,000 -2,520 Descending Minneapolis Center
12:56PM 44.8208 -91.7194 300° West 425 489 19,700 -2,040 Descending Minneapolis Center
12:57PM 44.8750 -91.8528 300° West 402 463 17,900 -1,920 Descending Minneapolis Center
12:58PM 44.9267 -91.9842 299° West 389 448 15,800 -2,040 Descending Minneapolis Center
12:59PM 44.9794 -92.1144 300° West 386 444 13,700 -2,040 Descending Minneapolis Center
01:00PM 45.0308 -92.2419 300° West 378 435 11,700 -1,380 Descending Minneapolis Center
01:01PM 45.0344 -92.3783 272° West 359 413 10,900 -1,140 Descending Minneapolis Center
01:02PM 45.0042 -92.5164 253° West 303 349 9,400 -1,200 Descending Minneapolis Center
01:03PM 44.9542 -92.5950 228° Southwest 270 311 8,500 -840 Descending Minneapolis Center
01:04PM 44.9108 -92.6672 230° Southwest 246 283 7,800 -780 Descending Minneapolis Center
01:05PM 44.8603 -92.7100 211° Southwest 229 264 7,000 -840 Descending Minneapolis Center
01:06PM 44.8067 -92.6828 160° South 207 238 6,200 -960 Descending Minneapolis Center
01:07PM 44.7561 -92.6433 151° Southeast 208 239 5,100 -600 Descending Minneapolis Center
01:08PM 44.7022 -92.6508 186° South 212 244 5,000 -60 Descending Minneapolis Center
01:09PM 44.6758 -92.7206 242° Southwest 203 234 5,000 -300 Level Minneapolis Center
01:10PM 44.6994 -92.7828 298° West 184 212 4,400 -540 Descending Minneapolis Center
01:11PM 44.7275 -92.8428 303° West 184 212 4,000 -240 Descending Minneapolis Center
01:12PM 44.7539 -92.9022 302° West 181 208 4,000  Level Minneapolis Center
01:13PM 44.7808 -92.9642 302° West 185 213 4,000 -60 Level Minneapolis Center
01:14PM 44.8078 -93.0253 302° West 185 213 3,900 -120 Descending Minneapolis Center